Time;durP1;ratioP1;P1;durP2;ratioP2;P2;SDS_P1;SDS_P2;PMS_P1;PMS_P2;Temp;Humidity;BMP_temperature;BMP_pressure;BME280_temperature;BME280_humidity;BME280_pressure;Samples;Min_cycle;Max_cycle;Signal;HPM_P1;HPM_P2
2022/03/19 00:01:17;;;;;;;6.70;4.40;;;;;;;-0.75;41.99;103107.38;117315;1186;23467;-60
2022/03/19 00:03:45;;;;;;;7.30;4.30;;;;;;;-0.76;42.01;103106.23;117349;1186;22058;-47
2022/03/19 00:06:15;;;;;;;6.50;3.50;;;;;;;-0.78;42.23;103100.45;117321;1185;21849;-60
2022/03/19 00:08:44;;;;;;;7.60;4.30;;;;;;;-0.77;42.09;103098.61;117303;1186;23471;-60
2022/03/19 00:11:34;;;;;;;10.10;4.10;;;;;;;-0.74;42.20;103098.96;117235;1190;21850;-48
2022/03/19 00:14:03;;;;;;;7.50;3.90;;;;;;;-0.72;42.12;103098.13;117318;1185;21852;-60
2022/03/19 00:16:31;;;;;;;12.10;4.40;;;;;;;-0.68;42.19;103094.92;117350;1185;21881;-48
2022/03/19 00:19:08;;;;;;;7.90;3.80;;;;;;;-0.66;42.19;103095.11;117297;1186;21849;-60
2022/03/19 00:21:37;;;;;;;7.30;3.90;;;;;;;-0.65;42.29;103091.90;117361;1186;23595;-48
2022/03/19 00:24:06;;;;;;;8.40;4.50;;;;;;;-0.64;42.15;103089.23;117378;1180;23464;-48
2022/03/19 00:26:34;;;;;;;7.50;3.80;;;;;;;-0.63;42.22;103087.57;117433;1185;21834;-48
2022/03/19 00:29:09;;;;;;;8.40;4.70;;;;;;;-0.63;42.34;103089.14;117286;1185;24165;-47
2022/03/19 00:31:39;;;;;;;11.10;5.30;;;;;;;-0.64;42.40;103083.21;117245;1187;21864;-60
2022/03/19 00:34:07;;;;;;;8.60;4.30;;;;;;;-0.63;42.37;103082.05;117284;1185;22459;-60
2022/03/19 00:36:37;;;;;;;11.20;6.40;;;;;;;-0.64;42.37;103079.77;117290;1186;23619;-48
2022/03/19 00:39:06;;;;;;;11.70;7.20;;;;;;;-0.64;42.46;103078.87;117273;1186;23468;-48
2022/03/19 00:41:35;;;;;;;9.60;5.90;;;;;;;-0.64;42.39;103076.52;117375;1185;21852;-60
2022/03/19 00:44:05;;;;;;;10.50;5.50;;;;;;;-0.63;42.26;103074.98;117348;1185;22313;-60
2022/03/19 00:46:33;;;;;;;9.00;5.40;;;;;;;-0.64;42.47;103075.64;117351;1185;23550;-48
2022/03/19 00:49:03;;;;;;;12.40;5.80;;;;;;;-0.63;42.66;103073.95;117375;1185;23467;-48
2022/03/19 00:51:32;;;;;;;9.30;5.50;;;;;;;-0.66;42.51;103073.08;117250;1182;24169;-59
2022/03/19 00:54:01;;;;;;;9.10;5.00;;;;;;;-0.65;42.62;103076.55;117348;1185;21860;-48
2022/03/19 00:56:31;;;;;;;15.00;5.50;;;;;;;-0.63;42.57;103077.09;117193;1188;23435;-60
2022/03/19 00:59:00;;;;;;;11.90;5.60;;;;;;;-0.61;42.79;103070.15;117390;1186;21853;-60
2022/03/19 01:01:28;;;;;;;9.40;5.00;;;;;;;-0.60;42.82;103070.06;117341;1185;23449;-48
2022/03/19 01:03:58;;;;;;;12.50;7.00;;;;;;;-0.59;42.53;103070.48;117344;1185;22500;-59
2022/03/19 01:06:26;;;;;;;12.50;6.60;;;;;;;-0.58;42.53;103066.55;117296;1185;22096;-48
2022/03/19 01:08:58;;;;;;;10.20;5.40;;;;;;;-0.59;42.49;103064.23;117356;1185;23551;-48
2022/03/19 01:11:41;;;;;;;8.80;4.70;;;;;;;-0.63;42.74;103061.38;117180;1188;24169;-60
2022/03/19 01:14:09;;;;;;;9.80;4.80;;;;;;;-0.64;42.60;103062.84;117332;1185;22927;-60
2022/03/19 01:16:57;;;;;;;9.40;4.20;;;;;;;-0.64;42.88;103059.39;117162;1185;21852;-60
2022/03/19 01:22:15;;;;;;;7.90;4.00;;;;;;;-0.67;42.69;103063.84;117335;1185;21849;-60
2022/03/19 01:24:43;;;;;;;7.80;3.50;;;;;;;-0.68;42.61;103059.95;117362;1186;23452;-48
2022/03/19 01:27:12;;;;;;;8.80;3.80;;;;;;;-0.70;42.66;103059.50;117389;1185;23513;-59
2022/03/19 01:29:41;;;;;;;6.20;3.70;;;;;;;-0.69;42.74;103055.90;117343;1185;23455;-48
2022/03/19 01:32:10;;;;;;;6.00;3.20;;;;;;;-0.70;42.85;103058.75;117337;1186;24166;-60
2022/03/19 01:34:39;;;;;;;6.90;3.40;;;;;;;-0.71;42.77;103059.75;117130;1188;23449;-48
2022/03/19 01:37:08;;;;;;;6.00;3.50;;;;;;;-0.70;42.80;103063.92;117336;1185;23481;-60
2022/03/19 01:39:37;;;;;;;8.00;3.90;;;;;;;-0.71;42.66;103066.48;117327;1186;24282;-48
2022/03/19 01:42:05;;;;;;;7.60;4.00;;;;;;;-0.74;42.49;103067.48;117344;1185;24146;-48
2022/03/19 01:44:34;;;;;;;6.30;3.20;;;;;;;-0.75;42.69;103069.95;117327;1186;21854;-60
2022/03/19 01:47:06;;;;;;;6.10;3.70;;;;;;;-0.78;42.72;103069.35;117320;1186;23438;-60
2022/03/19 01:49:35;;;;;;;9.10;3.50;;;;;;;-0.82;42.80;103070.94;117321;1186;23451;-60
2022/03/19 01:52:04;;;;;;;9.00;3.80;;;;;;;-0.85;42.78;103070.20;117257;1185;21866;-60
2022/03/19 01:54:37;;;;;;;10.40;5.10;;;;;;;-0.92;42.71;103071.23;117336;1185;21862;-48
2022/03/19 01:57:08;;;;;;;7.00;3.60;;;;;;;-0.99;42.87;103073.23;117326;1181;23445;-60
2022/03/19 01:59:57;;;;;;;7.00;4.00;;;;;;;-1.05;42.94;103078.86;117307;1185;22891;-60
2022/03/19 02:02:26;;;;;;;5.00;3.00;;;;;;;-1.07;43.14;103076.30;117361;1186;23541;-48
2022/03/19 02:04:55;;;;;;;6.40;3.60;;;;;;;-1.07;42.81;103074.36;117379;1183;21856;-60
2022/03/19 02:07:24;;;;;;;6.20;3.70;;;;;;;-1.10;42.94;103075.32;117355;1185;23472;-60
2022/03/19 02:09:53;;;;;;;9.40;4.30;;;;;;;-1.13;42.84;103074.12;117384;1186;21850;-60
2022/03/19 02:12:22;;;;;;;7.80;3.60;;;;;;;-1.15;43.06;103075.67;117300;1189;23445;-59
2022/03/19 02:14:51;;;;;;;7.90;4.10;;;;;;;-1.15;42.96;103076.82;117308;1186;23467;-48
2022/03/19 02:17:21;;;;;;;8.80;3.80;;;;;;;-1.18;42.89;103078.02;117233;1185;21970;-60
2022/03/19 02:19:53;;;;;;;7.30;4.10;;;;;;;-1.21;43.10;103076.61;117248;1186;23448;-60
2022/03/19 02:22:26;;;;;;;8.20;4.00;;;;;;;-1.22;43.00;103076.80;117384;1185;23468;-48
2022/03/19 02:27:42;;;;;;;9.80;5.20;;;;;;;-1.28;43.01;103078.91;117408;1181;23538;-61
2022/03/19 02:30:12;;;;;;;12.50;4.30;;;;;;;-1.31;43.06;103078.02;117345;1186;21888;-60
2022/03/19 02:32:45;;;;;;;12.90;4.60;;;;;;;-1.30;43.26;103077.16;117356;1185;21852;-60
2022/03/19 02:35:14;;;;;;;9.50;4.70;;;;;;;-1.31;43.03;103076.05;117312;1180;22942;-48
2022/03/19 02:37:44;;;;;;;8.90;4.70;;;;;;;-1.34;42.94;103078.27;117386;1186;22813;-48
2022/03/19 02:40:15;;;;;;;11.40;3.90;;;;;;;-1.37;43.11;103074.92;117297;1186;21893;-60
2022/03/19 02:42:51;;;;;;;7.90;4.50;;;;;;;-1.40;43.21;103077.31;117304;1186;21932;-58
2022/03/19 02:45:21;;;;;;;8.90;4.30;;;;;;;-1.41;43.07;103076.49;117345;1186;21848;-47
2022/03/19 02:47:57;;;;;;;10.20;4.10;;;;;;;-1.40;43.29;103078.31;117192;1187;21862;-46
2022/03/19 02:50:30;;;;;;;8.30;4.80;;;;;;;-1.40;42.97;103075.92;117365;1185;21852;-47
2022/03/19 02:53:05;;;;;;;8.50;4.60;;;;;;;-1.39;43.14;103070.13;117369;1185;21834;-59
2022/03/19 02:55:35;;;;;;;10.80;4.30;;;;;;;-1.39;43.15;103078.11;117354;1186;23480;-47
2022/03/19 02:58:04;;;;;;;10.10;5.10;;;;;;;-1.37;43.37;103078.57;117306;1186;23480;-47
2022/03/19 03:00:35;;;;;;;7.20;4.20;;;;;;;-1.37;43.21;103081.67;117351;1186;23467;-60
2022/03/19 03:03:04;;;;;;;9.50;4.80;;;;;;;-1.36;43.40;103082.63;117374;1185;23734;-60
2022/03/19 03:05:35;;;;;;;9.60;5.10;;;;;;;-1.37;43.29;103084.41;117309;1185;21855;-48
2022/03/19 03:08:04;;;;;;;8.30;4.30;;;;;;;-1.39;43.21;103083.58;117291;1185;21878;-48
2022/03/19 03:10:33;;;;;;;7.20;4.60;;;;;;;-1.42;43.43;103083.16;117341;1185;21857;-60
2022/03/19 03:13:02;;;;;;;10.20;5.00;;;;;;;-1.45;43.47;103085.55;117471;1186;24265;-59
2022/03/19 03:15:30;;;;;;;9.20;5.10;;;;;;;-1.46;43.50;103091.66;117351;1186;22066;-60
2022/03/19 03:18:01;;;;;;;7.90;3.40;;;;;;;-1.46;43.35;103091.61;117347;1185;24240;-48
2022/03/19 03:20:30;;;;;;;7.20;4.60;;;;;;;-1.46;43.45;103093.30;117280;1185;21852;-60
2022/03/19 03:22:59;;;;;;;8.60;5.00;;;;;;;-1.48;43.41;103094.04;117161;1185;23518;-48
2022/03/19 03:25:28;;;;;;;8.20;4.60;;;;;;;-1.51;43.32;103097.61;117290;1185;23539;-48
2022/03/19 03:27:56;;;;;;;9.80;4.20;;;;;;;-1.53;43.24;103101.05;117337;1185;23572;-48
2022/03/19 03:30:25;;;;;;;8.20;4.80;;;;;;;-1.53;43.47;103106.23;117339;1185;23551;-60
2022/03/19 03:32:53;;;;;;;8.60;4.30;;;;;;;-1.52;43.34;103108.20;117400;1186;23573;-47
2022/03/19 03:35:25;;;;;;;6.70;4.00;;;;;;;-1.55;43.44;103114.85;117312;1185;23548;-48
2022/03/19 03:37:56;;;;;;;8.70;4.90;;;;;;;-1.61;43.17;103115.39;117290;1189;22990;-60
2022/03/19 03:40:24;;;;;;;7.70;4.20;;;;;;;-1.66;43.31;103118.60;117333;1186;23570;-60
2022/03/19 03:42:54;;;;;;;7.20;3.70;;;;;;;-1.66;43.41;103118.94;117262;1185;23573;-60
2022/03/19 03:45:23;;;;;;;12.80;4.40;;;;;;;-1.66;43.48;103121.73;117311;1185;22078;-60
2022/03/19 03:47:52;;;;;;;8.50;4.00;;;;;;;-1.68;43.27;103126.05;117340;1185;22636;-48
2022/03/19 03:50:37;;;;;;;7.40;4.10;;;;;;;-1.72;43.36;103126.05;117257;1185;23395;-60
2022/03/19 03:53:06;;;;;;;8.50;4.60;;;;;;;-1.77;43.53;103128.53;117453;1185;22303;-60
2022/03/19 03:55:38;;;;;;;10.00;4.70;;;;;;;-1.81;43.36;103130.52;117313;1186;22719;-60
2022/03/19 03:58:08;;;;;;;9.10;4.50;;;;;;;-1.81;43.50;103134.81;117309;1185;24775;-60
2022/03/19 04:00:37;;;;;;;8.70;4.10;;;;;;;-1.79;43.51;103138.26;117273;1185;23547;-48
2022/03/19 04:03:06;;;;;;;10.40;4.50;;;;;;;-1.77;43.50;103139.73;117343;1185;24163;-48
2022/03/19 04:05:41;;;;;;;11.70;4.10;;;;;;;-1.77;43.40;103143.39;117311;1185;23573;-60
2022/03/19 04:08:10;;;;;;;13.30;4.90;;;;;;;-1.75;43.63;103146.95;117343;1185;23513;-60
2022/03/19 04:10:38;;;;;;;8.30;4.60;;;;;;;-1.76;43.40;103151.16;117433;1185;21851;-60
2022/03/19 04:13:11;;;;;;;8.90;5.00;;;;;;;-1.76;43.64;103156.84;117234;1185;21849;-60
2022/03/19 04:15:41;;;;;;;7.50;4.50;;;;;;;-1.77;43.46;103155.25;117342;1186;24261;-60
2022/03/19 04:18:09;;;;;;;8.10;4.40;;;;;;;-1.81;43.65;103158.59;117320;1185;23945;-60
2022/03/19 04:20:38;;;;;;;9.20;4.50;;;;;;;-1.83;43.69;103160.95;117312;1185;23471;-48
2022/03/19 04:23:08;;;;;;;6.80;4.10;;;;;;;-1.85;43.81;103162.05;117334;1186;21850;-60
2022/03/19 04:25:37;;;;;;;9.40;4.50;;;;;;;-1.83;43.75;103165.95;117324;1185;23445;-60
2022/03/19 04:28:05;;;;;;;8.20;4.40;;;;;;;-1.79;43.76;103167.85;117327;1185;21858;-48
2022/03/19 04:30:34;;;;;;;12.40;5.30;;;;;;;-1.74;43.86;103167.16;117300;1185;21881;-48
2022/03/19 04:33:04;;;;;;;11.40;4.10;;;;;;;-1.70;43.87;103165.27;117348;1186;23587;-47
2022/03/19 04:38:21;;;;;;;12.70;5.30;;;;;;;-1.59;43.93;103171.39;117193;1186;23458;-61
2022/03/19 04:40:51;;;;;;;10.70;4.80;;;;;;;-1.60;44.00;103170.71;117343;1185;23489;-49
2022/03/19 04:43:20;;;;;;;13.50;5.50;;;;;;;-1.60;43.91;103174.87;117370;1189;23644;-60
2022/03/19 04:45:48;;;;;;;11.40;5.10;;;;;;;-1.56;43.98;103175.78;117441;1186;23713;-62
2022/03/19 04:48:17;;;;;;;15.00;4.60;;;;;;;-1.53;43.91;103175.27;117290;1186;23471;-62
2022/03/19 04:50:48;;;;;;;8.40;4.50;;;;;;;-1.47;43.97;103177.98;117420;1185;23472;-48
2022/03/19 04:53:16;;;;;;;10.50;4.80;;;;;;;-1.43;44.07;103181.10;117337;1188;23437;-48
2022/03/19 04:55:47;;;;;;;12.20;4.80;;;;;;;-1.39;44.31;103178.84;117385;1185;24222;-63
2022/03/19 04:58:16;;;;;;;9.70;5.00;;;;;;;-1.39;44.05;103181.99;117172;1189;22721;-48
2022/03/19 05:00:51;;;;;;;14.10;5.40;;;;;;;-1.37;44.14;103182.63;117253;1186;23477;-61
2022/03/19 05:03:21;;;;;;;;;;;;;;;-1.44;44.00;103181.73;117253;1183;22861;-49
2022/03/19 05:05:55;;;;;;;9.60;4.20;;;;;;;-1.49;44.06;103181.48;117246;1185;21849;-49
2022/03/19 05:08:24;;;;;;;10.40;4.70;;;;;;;-1.52;43.80;103182.42;117318;1188;23445;-48
2022/03/19 05:13:48;;;;;;;8.50;4.70;;;;;;;-1.53;43.99;103189.73;117326;1186;21851;-48
2022/03/19 05:16:19;;;;;;;13.40;6.30;;;;;;;-1.57;44.04;103193.27;117304;1182;23439;-60
2022/03/19 05:18:50;;;;;;;8.10;4.90;;;;;;;-1.56;44.23;103195.69;117268;1186;24231;-60
2022/03/19 05:21:18;;;;;;;13.10;5.80;;;;;;;-1.51;44.12;103196.79;117155;1188;21849;-60
2022/03/19 05:23:51;;;;;;;9.20;5.50;;;;;;;-1.42;44.47;103199.10;117317;1186;24243;-62
2022/03/19 05:26:25;;;;;;;17.60;6.10;;;;;;;-1.28;44.54;103199.38;117403;1185;23571;-61
2022/03/19 05:29:11;;;;;;;13.30;6.80;;;;;;;-1.10;44.88;103198.23;119395;1185;21772;-49
2022/03/19 05:31:54;;;;;;;12.40;6.60;;;;;;;-0.93;44.76;103195.30;118480;1185;21852;-49
2022/03/19 05:34:40;;;;;;;11.10;6.50;;;;;;;-0.72;44.73;103191.94;117104;1186;21860;-64
2022/03/19 05:37:13;;;;;;;12.20;7.30;;;;;;;-0.52;44.93;103197.83;117219;1185;23443;-49
2022/03/19 05:39:49;;;;;;;9.60;6.50;;;;;;;-0.35;44.95;103193.95;117355;1185;21895;-61
2022/03/19 05:42:18;;;;;;;11.20;6.90;;;;;;;-0.19;45.00;103189.30;117456;1185;24785;-51
2022/03/19 05:44:48;;;;;;;12.30;7.30;;;;;;;-0.03;44.98;103190.34;117315;1186;21852;-49
2022/03/19 05:47:16;;;;;;;12.90;7.20;;;;;;;0.13;45.42;103187.20;117307;1185;22315;-63
2022/03/19 05:49:48;;;;;;;11.10;6.90;;;;;;;0.27;45.20;103184.11;117325;1186;23481;-61
2022/03/19 05:52:19;;;;;;;12.60;7.20;;;;;;;0.42;45.14;103183.83;117335;1189;21850;-61
2022/03/19 05:54:48;;;;;;;11.60;6.90;;;;;;;0.56;45.13;103185.89;117397;1186;21978;-50
2022/03/19 05:57:18;;;;;;;11.40;6.60;;;;;;;0.69;45.44;103185.50;117355;1186;21958;-62
2022/03/19 05:59:47;;;;;;;10.70;6.30;;;;;;;0.85;45.36;103189.05;117359;1186;21844;-62
2022/03/19 06:02:16;;;;;;;11.60;6.70;;;;;;;1.01;45.16;103189.67;117299;1186;23535;-62
2022/03/19 06:04:44;;;;;;;10.00;6.30;;;;;;;1.15;45.20;103188.44;117356;1186;23629;-50
2022/03/19 06:07:14;;;;;;;11.70;7.40;;;;;;;1.26;45.20;103186.56;117172;1186;23445;-50
2022/03/19 06:09:50;;;;;;;12.00;7.30;;;;;;;1.35;45.32;103192.38;117344;1186;21877;-50
2022/03/19 06:12:23;;;;;;;11.80;6.90;;;;;;;1.45;45.29;103189.48;117277;1186;23446;-50
2022/03/19 06:14:55;;;;;;;11.00;7.20;;;;;;;1.56;45.17;103187.30;117272;1186;23471;-50
2022/03/19 06:17:44;;;;;;;11.40;7.00;;;;;;;1.66;45.31;103187.30;117284;1185;23593;-63
2022/03/19 06:20:13;;;;;;;14.00;7.40;;;;;;;1.78;45.25;103184.29;117311;1186;21839;-50
2022/03/19 06:22:41;;;;;;;15.10;7.40;;;;;;;1.93;45.54;103179.96;117344;1185;23542;-63
2022/03/19 06:25:10;;;;;;;13.80;7.60;;;;;;;2.09;45.63;103177.77;117298;1186;22112;-50
2022/03/19 06:27:38;;;;;;;12.10;6.80;;;;;;;2.27;45.49;103177.72;117377;1186;23493;-63
2022/03/19 06:30:08;;;;;;;10.80;6.60;;;;;;;2.51;45.77;103177.59;117336;1185;23467;-61
2022/03/19 06:32:38;;;;;;;11.40;6.80;;;;;;;2.76;45.56;103174.70;117343;1186;22924;-61
2022/03/19 06:35:09;;;;;;;9.00;5.40;;;;;;;2.91;45.60;103176.29;117255;1183;21853;-62
2022/03/19 06:37:39;;;;;;;11.00;5.80;;;;;;;3.02;45.50;103176.88;117405;1185;21843;-61
2022/03/19 06:40:09;;;;;;;12.60;5.60;;;;;;;3.14;45.46;103175.20;117213;1189;23563;-50
2022/03/19 06:42:37;;;;;;;14.80;6.60;;;;;;;3.26;45.47;103174.23;117341;1186;21843;-57
2022/03/19 06:45:06;;;;;;;10.30;5.70;;;;;;;3.36;45.40;103169.77;117249;1185;23128;-50
2022/03/19 06:47:35;;;;;;;8.60;4.70;;;;;;;3.46;45.31;103164.64;117298;1186;23611;-50
2022/03/19 06:50:05;;;;;;;8.40;4.80;;;;;;;3.52;45.25;103167.48;117387;1186;23454;-51
2022/03/19 06:52:34;;;;;;;8.30;4.80;;;;;;;3.59;45.27;103160.76;117159;1187;24224;-62
2022/03/19 06:55:04;;;;;;;9.70;5.70;;;;;;;3.75;45.28;103165.35;117312;1186;24157;-50
2022/03/19 06:57:33;;;;;;;8.30;4.80;;;;;;;3.97;45.32;103166.35;117444;1186;21849;-61
2022/03/19 07:00:01;;;;;;;6.90;4.30;;;;;;;4.14;45.29;103163.20;117140;1187;23544;-50
2022/03/19 07:02:31;;;;;;;12.50;5.00;;;;;;;4.31;45.24;103163.77;118225;1185;23442;-64
2022/03/19 07:04:59;;;;;;;7.50;4.50;;;;;;;4.47;45.41;103164.20;117839;1185;21856;-65
2022/03/19 07:07:36;;;;;;;9.40;4.70;;;;;;;4.69;45.37;103162.45;117265;1185;23649;-49
2022/03/19 07:10:05;;;;;;;8.60;4.70;;;;;;;4.91;45.46;103163.88;117352;1186;23458;-47
2022/03/19 07:12:40;;;;;;;8.30;4.80;;;;;;;5.08;45.46;103163.09;117315;1186;23032;-50
2022/03/19 07:15:29;;;;;;;16.10;6.50;;;;;;;5.23;45.12;103163.73;117293;1185;22586;-51
2022/03/19 07:18:00;;;;;;;17.50;8.20;;;;;;;5.29;44.86;103157.91;117130;1180;22938;-60
2022/03/19 07:20:30;;;;;;;11.20;6.10;;;;;;;5.36;44.90;103154.48;117417;1186;23548;-64
2022/03/19 07:23:03;;;;;;;16.70;6.10;;;;;;;5.48;44.91;103150.23;117282;1185;21849;-60
2022/03/19 07:25:36;;;;;;;17.80;7.00;;;;;;;5.62;45.08;103155.86;117374;1185;21856;-49
2022/03/19 07:28:12;;;;;;;9.00;4.60;;;;;;;5.75;44.84;103149.56;117102;1189;23659;-62
2022/03/19 07:30:42;;;;;;;11.20;4.70;;;;;;;5.83;44.94;103148.08;117215;1186;23625;-61
2022/03/19 07:33:11;;;;;;;9.60;4.90;;;;;;;5.94;44.98;103148.98;117344;1185;21960;-61
2022/03/19 07:35:40;;;;;;;6.70;4.20;;;;;;;6.11;44.97;103147.74;117342;1186;24187;-61
2022/03/19 07:38:11;;;;;;;7.30;3.90;;;;;;;6.23;45.02;103145.92;117318;1185;22463;-61
2022/03/19 07:43:28;;;;;;;5.90;3.20;;;;;;;6.45;44.58;103149.61;117431;1182;22906;-49
2022/03/19 07:45:56;;;;;;;7.00;3.80;;;;;;;6.54;44.81;103144.98;117235;1189;21843;-60
2022/03/19 07:48:26;;;;;;;7.70;3.80;;;;;;;6.63;44.46;103143.33;117348;1186;22092;-48
2022/03/19 07:50:55;;;;;;;6.90;3.20;;;;;;;6.71;44.46;103138.83;117323;1185;23463;-49
2022/03/19 07:53:24;;;;;;;6.40;3.20;;;;;;;6.83;44.16;103137.48;117189;1187;21853;-49
2022/03/19 07:55:55;;;;;;;6.50;2.80;;;;;;;6.88;44.36;103138.92;117373;1185;21847;-49
2022/03/19 07:58:23;;;;;;;5.10;3.00;;;;;;;7.04;44.66;103137.20;117306;1188;21846;-60
2022/03/19 08:00:52;;;;;;;6.40;3.90;;;;;;;7.20;44.74;103134.66;117402;1184;24162;-48
2022/03/19 08:03:21;;;;;;;6.00;3.30;;;;;;;7.38;44.54;103133.36;117399;1186;24166;-50
2022/03/19 08:05:53;;;;;;;5.60;3.40;;;;;;;7.54;44.36;103135.80;117418;1186;22052;-61
2022/03/19 08:08:22;;;;;;;5.20;3.00;;;;;;;7.65;44.38;103138.23;117435;1186;23468;-49
2022/03/19 08:10:51;;;;;;;7.20;3.20;;;;;;;7.77;44.16;103137.69;117471;1185;23468;-49
2022/03/19 08:13:20;;;;;;;5.50;3.10;;;;;;;7.90;44.04;103136.86;117433;1185;21848;-61
2022/03/19 08:15:50;;;;;;;5.50;3.10;;;;;;;8.02;44.03;103136.64;117487;1185;23904;-49
2022/03/19 08:18:19;;;;;;;5.20;3.10;;;;;;;8.08;44.02;103133.23;117414;1186;22530;-61
2022/03/19 08:20:47;;;;;;;7.80;3.50;;;;;;;8.22;44.17;103131.88;117275;1186;23557;-61
2022/03/19 08:23:19;;;;;;;4.80;2.90;;;;;;;8.37;44.14;103132.64;117312;1185;24166;-50
2022/03/19 08:25:47;;;;;;;6.80;3.20;;;;;;;8.54;44.02;103128.14;117282;1186;22995;-61
2022/03/19 08:28:17;;;;;;;8.60;2.60;;;;;;;8.68;44.01;103120.13;117297;1185;21955;-49
2022/03/19 08:30:46;;;;;;;5.90;3.30;;;;;;;8.81;43.94;103120.98;117492;1186;23573;-49
2022/03/19 08:33:15;;;;;;;6.10;3.20;;;;;;;8.95;43.86;103120.28;117447;1186;23513;-50
2022/03/19 08:35:45;;;;;;;4.90;2.50;;;;;;;8.99;43.78;103124.27;117603;1185;21855;-61
2022/03/19 08:41:02;;;;;;;4.80;2.50;;;;;;;9.31;43.81;103124.05;117469;1185;23567;-61
2022/03/19 08:43:35;;;;;;;7.60;3.30;;;;;;;9.49;43.72;103117.89;117298;1185;23555;-50
2022/03/19 08:46:05;;;;;;;6.90;2.90;;;;;;;9.73;43.64;103114.52;117288;1185;21850;-55
2022/03/19 08:48:37;;;;;;;4.80;2.00;;;;;;;9.91;43.69;103110.42;117347;1185;23550;-52
2022/03/19 08:53:55;;;;;;;5.10;2.60;;;;;;;10.33;43.27;103105.84;117400;1185;23550;-62
2022/03/19 08:56:24;;;;;;;5.00;2.50;;;;;;;10.38;43.02;103101.63;117420;1186;23551;-50
2022/03/19 08:58:52;;;;;;;5.00;2.20;;;;;;;10.29;42.79;103105.34;117388;1186;23573;-51
2022/03/19 09:01:21;;;;;;;4.80;2.30;;;;;;;10.25;42.70;103095.92;117412;1186;23550;-61
2022/03/19 09:03:50;;;;;;;4.00;2.00;;;;;;;10.29;42.82;103095.15;117388;1184;24297;-63
2022/03/19 09:06:20;;;;;;;3.20;1.80;;;;;;;10.45;43.01;103093.77;117384;1185;24156;-63
2022/03/19 09:08:51;;;;;;;3.30;1.80;;;;;;;10.57;42.91;103086.95;117469;1186;22951;-50
2022/03/19 09:11:20;;;;;;;6.00;2.40;;;;;;;10.74;43.15;103082.73;117379;1185;23557;-50
2022/03/19 09:13:50;;;;;;;5.60;1.90;;;;;;;10.93;43.03;103077.84;117353;1185;23564;-50
2022/03/19 09:16:20;;;;;;;5.30;2.30;;;;;;;11.08;42.76;103073.36;117355;1185;24557;-50
2022/03/19 09:18:50;;;;;;;6.50;2.80;;;;;;;11.23;42.97;103071.65;117367;1188;22907;-51
2022/03/19 09:21:19;;;;;;;9.50;3.30;;;;;;;11.34;42.85;103072.67;117314;1186;22886;-63
2022/03/19 09:23:49;;;;;;;4.20;2.40;;;;;;;11.45;42.78;103072.10;117416;1185;22972;-51
2022/03/19 09:26:18;;;;;;;5.80;2.20;;;;;;;11.56;42.66;103066.40;117274;1184;23644;-51
2022/03/19 09:28:47;;;;;;;5.30;2.20;;;;;;;11.63;42.43;103070.98;117315;1184;22953;-63
2022/03/19 09:31:18;;;;;;;5.70;2.40;;;;;;;11.50;42.00;103070.83;117335;1185;23561;-52
2022/03/19 09:33:47;;;;;;;4.70;2.00;;;;;;;11.42;42.13;103059.54;117397;1186;23445;-60
2022/03/19 09:36:16;;;;;;;4.50;1.60;;;;;;;11.52;42.35;103067.18;117411;1185;21856;-63
2022/03/19 09:38:44;;;;;;;3.10;1.50;;;;;;;11.57;42.03;103062.91;117859;1186;24213;-63
2022/03/19 09:41:14;;;;;;;3.50;2.00;;;;;;;11.65;42.14;103059.80;117442;1181;21852;-62
2022/03/19 09:43:49;;;;;;;8.80;2.10;;;;;;;11.79;42.16;103053.09;117387;1185;23586;-51
2022/03/19 09:46:18;;;;;;;4.70;2.50;;;;;;;11.84;41.90;103057.10;117464;1186;21846;-52
2022/03/19 09:48:46;;;;;;;6.70;2.20;;;;;;;11.90;42.10;103051.63;117325;1186;24161;-52
2022/03/19 09:51:16;;;;;;;6.70;2.80;;;;;;;12.07;41.88;103059.29;117439;1185;24148;-52
2022/03/19 09:53:46;;;;;;;3.80;2.10;;;;;;;12.19;42.00;103053.41;117360;1185;21848;-63
2022/03/19 09:56:32;;;;;;;6.40;2.10;;;;;;;12.27;41.93;103050.42;117104;1185;24151;-62
2022/03/19 09:59:00;;;;;;;4.00;2.00;;;;;;;12.27;41.50;103054.13;117230;1185;22927;-63
2022/03/19 10:01:31;;;;;;;5.40;2.20;;;;;;;12.24;41.55;103051.05;117389;1186;23445;-50
2022/03/19 10:04:04;;;;;;;4.90;1.80;;;;;;;12.32;41.70;103050.20;117403;1185;22278;-50
2022/03/19 10:09:23;;;;;;;3.90;1.90;;;;;;;12.61;41.83;103044.52;117356;1184;24168;-50
2022/03/19 10:11:52;;;;;;;4.50;1.60;;;;;;;12.75;41.85;103040.23;117415;1185;22890;-50
2022/03/19 10:14:23;;;;;;;5.30;2.30;;;;;;;12.92;41.70;103038.27;117436;1179;22922;-62
2022/03/19 10:16:52;;;;;;;3.50;2.00;;;;;;;13.02;41.53;103041.48;117414;1185;21848;-62
2022/03/19 10:19:22;;;;;;;4.00;2.00;;;;;;;13.10;41.33;103034.94;117352;1183;21848;-50
2022/03/19 10:21:51;;;;;;;3.00;1.40;;;;;;;13.24;41.41;103035.89;118095;1186;21848;-50
2022/03/19 10:24:25;;;;;;;4.50;2.00;;;;;;;13.31;41.35;103037.44;117198;1185;23576;-49
2022/03/19 10:26:53;;;;;;;4.20;1.60;;;;;;;13.31;41.18;103036.73;117402;1184;21852;-50
2022/03/19 10:29:30;;;;;;;5.60;2.10;;;;;;;13.33;41.08;103039.77;117298;1185;23448;-51
2022/03/19 10:32:06;;;;;;;3.80;1.70;;;;;;;13.36;41.10;103031.20;118549;1185;21843;-50
2022/03/19 10:34:39;;;;;;;3.00;1.60;;;;;;;13.51;41.07;103033.96;117324;1186;22652;-50
2022/03/19 10:37:07;;;;;;;5.30;1.70;;;;;;;13.70;41.28;103032.71;117372;1186;21947;-63
2022/03/19 10:39:36;;;;;;;6.10;1.80;;;;;;;13.86;41.13;103035.80;117398;1186;23575;-63
2022/03/19 10:42:14;;;;;;;4.90;1.70;;;;;;;13.91;40.93;103029.00;117351;1185;23551;-63
2022/03/19 10:44:42;;;;;;;7.10;2.10;;;;;;;13.90;40.72;103020.34;117298;1186;21966;-63
2022/03/19 10:47:11;;;;;;;5.00;1.90;;;;;;;13.84;40.72;103028.52;117289;1186;23547;-50
2022/03/19 10:49:41;;;;;;;5.20;2.00;;;;;;;13.78;40.42;103024.89;117280;1185;23544;-50
2022/03/19 10:52:10;;;;;;;4.20;1.60;;;;;;;13.78;40.65;103015.36;117173;1184;22180;-63
2022/03/19 10:54:39;;;;;;;5.50;1.90;;;;;;;13.79;40.61;103015.39;117124;1188;21872;-63
2022/03/19 10:57:08;;;;;;;6.00;1.90;;;;;;;13.88;40.60;103008.84;117321;1181;22934;-50
2022/03/19 10:59:37;;;;;;;4.20;2.00;;;;;;;13.98;40.62;103000.33;117381;1184;23554;-62
2022/03/19 11:02:06;;;;;;;4.00;2.10;;;;;;;14.07;40.38;103000.11;117389;1185;23547;-62
2022/03/19 11:04:35;;;;;;;4.70;2.00;;;;;;;14.04;40.49;102994.23;117362;1185;21942;-51
2022/03/19 11:07:04;;;;;;;4.00;1.60;;;;;;;14.16;40.62;102993.73;117256;1189;21892;-50
2022/03/19 11:09:37;;;;;;;3.40;1.80;;;;;;;14.29;40.46;102990.55;117283;1185;21850;-51
2022/03/19 11:12:09;;;;;;;6.50;2.20;;;;;;;14.43;40.57;102991.42;117418;1185;23563;-63
2022/03/19 11:14:40;;;;;;;4.90;2.30;;;;;;;14.51;40.32;102990.31;117642;1185;22652;-63
2022/03/19 11:17:24;;;;;;;;;;;;;;;14.54;40.21;102983.98;118508;1186;22982;-63
2022/03/19 11:20:13;;;;;;;3.90;1.80;;;;;;;14.39;39.89;102987.85;117867;1185;23475;-63
2022/03/19 11:22:43;;;;;;;13.40;2.20;;;;;;;14.37;40.08;102984.11;118605;1186;23475;-52
2022/03/19 11:25:44;;;;;;;3.90;2.20;;;;;;;14.52;40.28;102983.08;117395;1185;22723;-51
2022/03/19 11:28:13;;;;;;;5.80;2.00;;;;;;;14.62;39.97;102981.08;117450;1186;21845;-64
2022/03/19 11:30:57;;;;;;;7.70;3.40;;;;;;;14.75;39.96;102983.57;117355;1186;23567;-50
2022/03/19 11:33:30;;;;;;;6.60;2.60;;;;;;;14.87;39.57;102987.94;117426;1185;23470;-67
2022/03/19 11:36:01;;;;;;;6.20;2.20;;;;;;;14.93;39.64;102980.77;117430;1185;23868;-65
2022/03/19 11:38:31;;;;;;;7.60;2.70;;;;;;;15.05;39.69;102978.95;117487;1186;24148;-66
2022/03/19 11:41:00;;;;;;;4.80;2.60;;;;;;;15.14;39.63;102975.33;117377;1186;22887;-66
2022/03/19 11:43:31;;;;;;;5.80;2.70;;;;;;;15.21;39.56;102976.45;117402;1186;22946;-66
2022/03/19 11:46:02;;;;;;;8.50;3.00;;;;;;;15.20;39.25;102966.90;117343;1186;21916;-50
2022/03/19 11:48:36;;;;;;;4.70;2.40;;;;;;;15.14;39.34;102969.49;117302;1185;23573;-52
2022/03/19 11:51:28;;;;;;;4.80;2.40;;;;;;;15.13;39.12;102966.48;119335;1185;21842;-62
2022/03/19 11:54:02;;;;;;;6.30;2.40;;;;;;;15.03;38.96;102968.14;117333;1183;21893;-64
2022/03/19 11:56:42;;;;;;;8.50;2.40;;;;;;;15.03;39.12;102957.71;117319;1185;22922;-64